createdAt,value
2022-11-19T00:00:30.310Z,16.70
2022-11-19T00:03:00.027Z,16.00
2022-11-19T00:05:29.780Z,16.80
2022-11-19T00:07:59.484Z,15.50
2022-11-19T00:10:31.839Z,16.47
2022-11-19T00:12:58.999Z,15.05
2022-11-19T00:15:28.744Z,16.90
2022-11-19T00:18:00.561Z,16.40
2022-11-19T00:20:30.615Z,15.57
2022-11-19T00:23:00.761Z,17.80
2022-11-19T00:25:33.664Z,15.73
2022-11-19T00:28:03.390Z,15.30
2022-11-19T00:30:47.589Z,17.17
2022-11-19T00:33:18.059Z,18.20
2022-11-19T00:35:47.823Z,16.33
2022-11-19T00:38:17.553Z,21.20
2022-11-19T00:40:49.913Z,19.20
2022-11-19T00:43:32.270Z,15.48
2022-11-19T00:46:02.011Z,16.13
2022-11-19T00:48:31.780Z,16.67
2022-11-19T00:51:01.604Z,16.65
2022-11-19T00:53:31.442Z,14.45
2022-11-19T00:56:06.643Z,22.25
2022-11-19T00:58:36.446Z,14.95
2022-11-19T01:01:06.610Z,15.45
2022-11-19T01:03:37.484Z,15.83
2022-11-19T01:06:08.170Z,15.85
2022-11-19T01:08:41.314Z,15.60
2022-11-19T01:11:16.733Z,16.23
2022-11-19T01:13:46.668Z,15.05
2022-11-19T01:16:18.434Z,14.95
2022-11-19T01:18:50.076Z,17.98
2022-11-19T01:21:21.196Z,17.58
2022-11-19T01:23:51.128Z,16.55
2022-11-19T01:26:23.915Z,15.57
2022-11-19T01:28:54.289Z,15.35
2022-11-19T01:31:25.655Z,17.33
2022-11-19T01:33:55.910Z,17.27
2022-11-19T01:36:27.094Z,15.50
2022-11-19T01:38:57.255Z,18.17
2022-11-19T01:41:31.245Z,19.73
2022-11-19T01:44:03.460Z,16.90
2022-11-19T01:46:35.980Z,15.52
2022-11-19T01:49:08.950Z,16.20
2022-11-19T01:51:41.610Z,16.23
2022-11-19T01:54:16.534Z,17.45
2022-11-19T01:56:49.416Z,15.48
2022-11-19T01:59:21.842Z,16.92
2022-11-19T02:01:51.919Z,17.55
2022-11-19T02:04:23.265Z,13.75
2022-11-19T02:06:53.310Z,15.07
2022-11-19T02:09:23.381Z,17.67
2022-11-19T02:12:23.649Z,15.98
2022-11-19T02:15:18.656Z,17.40
2022-11-19T02:18:05.127Z,15.80
2022-11-19T02:20:47.080Z,15.25
2022-11-19T02:23:51.821Z,17.08
2022-11-19T02:26:46.170Z,17.05
2022-11-19T02:29:28.159Z,17.57
2022-11-19T02:32:05.589Z,17.00
2022-11-19T02:34:39.406Z,16.77
2022-11-19T02:37:15.814Z,16.63
2022-11-19T02:39:51.403Z,17.95
2022-11-19T02:42:26.714Z,16.80
2022-11-19T02:45:02.473Z,15.65
2022-11-19T02:47:41.284Z,16.23
2022-11-19T02:50:14.422Z,17.40
2022-11-19T02:52:46.545Z,17.23
2022-11-19T02:55:17.189Z,17.25
2022-11-19T02:57:52.697Z,16.58
2022-11-19T03:00:35.076Z,17.35
2022-11-19T03:03:23.236Z,17.77
2022-11-19T03:05:56.605Z,15.10
2022-11-19T03:08:26.638Z,16.85
2022-11-19T03:11:08.022Z,16.13
2022-11-19T03:14:01.121Z,16.38
2022-11-19T03:16:45.077Z,18.08
2022-11-19T03:19:30.495Z,16.17
2022-11-19T03:22:05.335Z,16.40
2022-11-19T03:24:39.066Z,18.60
2022-11-19T03:27:15.862Z,14.67
2022-11-19T03:29:49.678Z,16.73
2022-11-19T03:32:23.566Z,16.80
2022-11-19T03:35:02.563Z,16.95
2022-11-19T03:37:37.794Z,15.57
2022-11-19T03:40:10.837Z,17.48
2022-11-19T03:42:42.770Z,17.95
2022-11-19T03:45:16.572Z,15.75
2022-11-19T03:47:50.620Z,16.20
2022-11-19T03:50:27.948Z,16.17
2022-11-19T03:53:02.876Z,17.27
2022-11-19T03:55:38.207Z,18.00
2022-11-19T03:58:10.463Z,17.67
2022-11-19T04:00:40.570Z,15.80
2022-11-19T04:03:10.595Z,15.73
2022-11-19T04:05:42.958Z,17.00
2022-11-19T04:08:12.728Z,16.65
2022-11-19T04:10:42.471Z,16.50
2022-11-19T04:13:12.314Z,17.75
2022-11-19T04:15:42.044Z,19.05
2022-11-19T04:18:11.794Z,17.20
2022-11-19T04:20:45.576Z,15.50
2022-11-19T04:23:15.304Z,17.15
2022-11-19T04:25:48.757Z,23.02
2022-11-19T04:28:18.441Z,15.57
2022-11-19T04:30:48.213Z,17.35
2022-11-19T04:33:17.980Z,19.27
2022-11-19T04:35:50.394Z,16.75
2022-11-19T04:38:20.087Z,15.85
2022-11-19T04:40:49.958Z,17.65
2022-11-19T04:43:19.742Z,15.10
2022-11-19T04:45:49.792Z,15.18
2022-11-19T04:48:19.532Z,16.25
2022-11-19T04:50:52.027Z,17.88
2022-11-19T04:53:21.816Z,15.45
2022-11-19T04:55:51.558Z,16.95
2022-11-19T04:58:21.343Z,17.08
2022-11-19T05:00:51.269Z,18.40
2022-11-19T05:03:21.157Z,15.98
2022-11-19T05:05:53.609Z,16.75
2022-11-19T05:08:24.386Z,17.00
2022-11-19T05:10:54.373Z,17.25
2022-11-19T05:13:24.289Z,12.98
2022-11-19T05:15:54.018Z,15.25
2022-11-19T05:18:23.873Z,15.38
2022-11-19T05:20:56.257Z,13.95
2022-11-19T05:23:26.326Z,16.98
2022-11-19T05:25:56.096Z,17.77
2022-11-19T05:28:37.925Z,16.05
2022-11-19T05:31:08.933Z,14.90
2022-11-19T05:33:38.678Z,15.38
2022-11-19T05:36:11.765Z,16.02
2022-11-19T05:38:41.513Z,16.10
2022-11-19T05:41:11.272Z,17.35
2022-11-19T05:43:41.026Z,15.40
2022-11-19T05:46:10.755Z,15.20
2022-11-19T05:48:40.508Z,18.20
2022-11-19T05:51:16.269Z,14.88
2022-11-19T05:53:46.477Z,14.55
2022-11-19T05:56:16.296Z,14.70
2022-11-19T05:58:46.220Z,14.88
2022-11-19T06:01:17.688Z,16.38
2022-11-19T06:03:47.435Z,16.20
2022-11-19T06:06:19.833Z,15.20
2022-11-19T06:08:51.228Z,16.90
2022-11-19T06:11:33.517Z,19.77
2022-11-19T06:14:03.668Z,16.20
2022-11-19T06:16:33.614Z,17.42
2022-11-19T06:19:03.355Z,15.73
2022-11-19T06:21:35.785Z,15.63
2022-11-19T06:24:05.569Z,15.55
2022-11-19T06:26:35.361Z,17.63
2022-11-19T06:29:05.442Z,15.25
2022-11-19T06:31:35.554Z,15.85
2022-11-19T06:34:09.292Z,16.90
2022-11-19T06:36:45.092Z,15.02
2022-11-19T06:39:19.333Z,18.35
2022-11-19T06:42:15.229Z,16.85
2022-11-19T06:44:45.017Z,15.10
2022-11-19T06:47:18.243Z,16.48
2022-11-19T06:49:48.036Z,17.48
2022-11-19T06:52:23.834Z,16.63
2022-11-19T06:54:57.298Z,14.68
2022-11-19T06:57:30.248Z,20.23
2022-11-19T07:00:03.227Z,16.60
2022-11-19T07:02:35.115Z,19.88
2022-11-19T07:05:05.222Z,14.80
2022-11-19T07:07:39.680Z,15.85
2022-11-19T07:10:12.202Z,14.20
2022-11-19T07:12:41.999Z,14.07
2022-11-19T07:15:13.153Z,14.50
2022-11-19T07:17:43.086Z,14.98
2022-11-19T07:20:14.169Z,16.77
2022-11-19T07:22:46.592Z,18.10
2022-11-19T07:25:16.457Z,14.50
2022-11-19T07:27:48.798Z,14.25
2022-11-19T07:30:22.394Z,15.75
2022-11-19T07:32:52.342Z,14.82
2022-11-19T07:35:23.230Z,15.00
2022-11-19T07:37:55.643Z,15.43
2022-11-19T07:40:25.603Z,14.38
2022-11-19T07:42:53.825Z,16.42
2022-11-19T07:45:25.075Z,15.13
2022-11-19T07:47:54.914Z,15.45
2022-11-19T07:50:28.258Z,16.05
2022-11-19T07:53:03.472Z,17.52
2022-11-19T07:55:37.314Z,15.95
2022-11-19T07:58:08.176Z,17.33
2022-11-19T08:00:39.046Z,16.83
2022-11-19T08:03:12.958Z,17.23
2022-11-19T08:05:46.204Z,15.68
2022-11-19T08:08:19.626Z,18.20
2022-11-19T08:10:49.435Z,16.30
2022-11-19T08:13:19.241Z,18.90
2022-11-19T08:15:50.052Z,18.50
2022-11-19T08:18:17.415Z,17.77
2022-11-19T08:20:48.789Z,17.55
2022-11-19T08:23:21.332Z,17.38
2022-11-19T08:25:53.062Z,18.05
2022-11-19T08:28:22.950Z,20.75
2022-11-19T08:30:53.907Z,14.85
2022-11-19T08:33:29.962Z,16.65
2022-11-19T08:36:01.764Z,13.33
2022-11-19T08:38:38.463Z,16.27
2022-11-19T08:41:21.622Z,18.38
2022-11-19T08:43:51.411Z,15.23
2022-11-19T08:46:21.250Z,17.33
2022-11-19T08:48:53.073Z,15.35
2022-11-19T08:51:22.889Z,15.48
2022-11-19T08:53:56.965Z,15.15
2022-11-19T08:56:30.295Z,16.90
2022-11-19T08:59:02.999Z,16.92
2022-11-19T09:01:33.683Z,17.20
2022-11-19T09:04:03.582Z,17.13
2022-11-19T09:06:38.309Z,15.75
2022-11-19T09:09:12.845Z,16.25
2022-11-19T09:11:43.246Z,16.27
2022-11-19T09:14:14.353Z,19.02
2022-11-19T09:16:44.223Z,15.80
2022-11-19T09:19:14.163Z,17.35
2022-11-19T09:21:44.019Z,14.68
2022-11-19T09:24:18.754Z,16.27
2022-11-19T09:26:52.628Z,17.10
2022-11-19T09:29:23.288Z,14.52
2022-11-19T09:31:53.158Z,22.50
2022-11-19T09:34:26.120Z,17.92
2022-11-19T09:36:56.078Z,15.93
2022-11-19T09:39:29.546Z,12.70
2022-11-19T09:42:04.953Z,15.05
2022-11-19T09:44:48.874Z,16.92
2022-11-19T09:47:30.514Z,21.42
2022-11-19T09:50:09.248Z,20.85
2022-11-19T09:52:46.787Z,17.25
2022-11-19T09:55:25.348Z,20.02
2022-11-19T09:57:58.997Z,18.73
2022-11-19T10:00:31.119Z,14.13
2022-11-19T10:03:04.074Z,15.13
2022-11-19T10:05:44.007Z,16.17
2022-11-19T10:08:28.505Z,14.38
2022-11-19T10:11:14.420Z,16.13
2022-11-19T10:13:52.970Z,13.30
2022-11-19T10:16:35.729Z,15.70
2022-11-19T10:19:17.700Z,13.68
2022-11-19T10:21:57.258Z,24.23
2022-11-19T10:24:37.241Z,13.50
2022-11-19T10:27:14.414Z,14.77
2022-11-19T10:29:44.442Z,13.25
2022-11-19T10:32:25.214Z,11.45
2022-11-19T10:35:03.234Z,16.67
2022-11-19T10:37:38.167Z,14.73
2022-11-19T10:40:15.062Z,28.73
2022-11-19T10:42:54.156Z,44.03
2022-11-19T10:45:27.607Z,26.90
2022-11-19T10:48:09.595Z,31.42
2022-11-19T10:50:40.575Z,115.03
2022-11-19T10:53:19.107Z,39.85
2022-11-19T10:55:54.719Z,41.30
2022-11-19T10:58:35.043Z,40.67
2022-11-19T11:01:07.797Z,46.72
2022-11-19T11:03:46.949Z,166.43
2022-11-19T11:06:16.897Z,136.60
2022-11-19T11:08:54.372Z,22.00
2022-11-19T11:11:49.027Z,18.00
2022-11-19T11:14:37.817Z,21.77
2022-11-19T11:17:21.575Z,18.23
2022-11-19T11:20:00.161Z,12.43
2022-11-19T11:22:30.996Z,52.20
2022-11-19T11:25:07.282Z,17.87
2022-11-19T11:27:45.197Z,15.53
2022-11-19T11:30:22.293Z,13.83
2022-11-19T11:32:52.098Z,12.97
2022-11-19T11:35:34.360Z,27.30
2022-11-19T11:38:05.940Z,11.80
2022-11-19T11:40:35.790Z,15.43
2022-11-19T11:43:07.699Z,22.20
2022-11-19T11:45:43.813Z,32.23
2022-11-19T11:48:23.048Z,49.15
2022-11-19T11:50:54.046Z,124.90
2022-11-19T11:53:32.727Z,63.00
2022-11-19T11:56:06.374Z,88.13
2022-11-19T11:58:37.287Z,74.17
2022-11-19T12:01:18.440Z,29.97
2022-11-19T12:04:00.177Z,11.37
2022-11-19T12:06:38.535Z,16.88
2022-11-19T12:09:16.590Z,21.60
2022-11-19T12:11:58.505Z,10.50
2022-11-19T12:14:32.038Z,13.80
2022-11-19T12:17:21.306Z,16.47
2022-11-19T12:20:16.611Z,12.43
2022-11-19T12:23:00.906Z,13.23
2022-11-19T12:25:37.930Z,10.47
2022-11-19T12:28:22.894Z,12.40
2022-11-19T12:31:07.127Z,18.43
2022-11-19T12:34:04.563Z,16.73
2022-11-19T12:36:48.484Z,11.80
2022-11-19T12:39:33.733Z,11.80
2022-11-19T12:42:34.164Z,8.30
2022-11-19T12:45:15.312Z,9.50
2022-11-19T12:48:07.741Z,8.97
2022-11-19T12:50:51.077Z,9.53
2022-11-19T12:53:48.888Z,12.07
2022-11-19T12:56:32.885Z,9.60
2022-11-19T12:59:13.574Z,10.93
2022-11-19T13:01:47.984Z,8.53
2022-11-19T13:04:22.231Z,11.33
2022-11-19T13:07:01.253Z,8.90
2022-11-19T13:09:41.000Z,9.90
2022-11-19T13:12:16.285Z,9.27
2022-11-19T13:14:54.627Z,9.77
2022-11-19T13:17:31.398Z,9.47
2022-11-19T13:20:05.715Z,9.90
2022-11-19T13:22:39.976Z,11.57
2022-11-19T13:25:21.641Z,10.77
2022-11-19T13:27:54.024Z,10.40
2022-11-19T13:30:26.835Z,9.27
2022-11-19T13:33:06.147Z,8.67
2022-11-19T13:35:43.322Z,9.60
2022-11-19T13:38:23.653Z,9.20
2022-11-19T13:40:57.194Z,9.50
2022-11-19T13:43:42.780Z,13.23
2022-11-19T13:46:23.903Z,9.97
2022-11-19T13:49:04.374Z,12.17
2022-11-19T13:51:39.646Z,12.43
2022-11-19T13:54:25.525Z,10.60
2022-11-19T13:57:00.203Z,18.20
2022-11-19T13:59:35.420Z,21.13
2022-11-19T14:02:30.158Z,18.87
2022-11-19T14:05:37.310Z,15.40
2022-11-19T14:08:25.230Z,12.80
2022-11-19T14:11:16.409Z,13.80
2022-11-19T14:14:03.955Z,9.30
2022-11-19T14:16:55.689Z,8.47
2022-11-19T14:19:44.473Z,9.70
2022-11-19T14:22:48.838Z,8.30
2022-11-19T14:25:56.451Z,6.97
2022-11-19T14:28:51.297Z,6.47
2022-11-19T14:31:23.364Z,9.10
2022-11-19T14:34:05.530Z,8.37
2022-11-19T14:36:46.427Z,7.10
2022-11-19T14:39:26.013Z,9.40
2022-11-19T14:42:15.411Z,8.60
2022-11-19T14:44:48.720Z,7.20
2022-11-19T14:47:37.648Z,10.10
2022-11-19T14:50:11.996Z,14.63
2022-11-19T14:52:54.276Z,9.53
2022-11-19T14:55:26.317Z,8.43
2022-11-19T14:58:01.629Z,9.50
2022-11-19T15:00:38.143Z,10.93
2022-11-19T15:03:16.147Z,7.83
2022-11-19T15:05:50.130Z,8.50
2022-11-19T15:08:31.567Z,9.27
2022-11-19T15:11:10.365Z,8.17
2022-11-19T15:13:41.909Z,8.30
2022-11-19T15:16:21.876Z,9.57
2022-11-19T15:19:19.114Z,9.53
2022-11-19T15:22:31.558Z,10.60
2022-11-19T15:25:29.203Z,8.60
2022-11-19T15:28:15.633Z,15.07
2022-11-19T15:31:20.225Z,9.20
2022-11-19T15:34:35.055Z,9.87
2022-11-19T15:37:26.146Z,9.13
2022-11-19T15:39:59.911Z,11.30
2022-11-19T15:42:35.495Z,10.13
2022-11-19T15:45:11.047Z,9.03
2022-11-19T15:47:47.298Z,15.10
2022-11-19T15:50:23.666Z,14.47
2022-11-19T15:53:02.844Z,15.20
2022-11-19T15:55:34.244Z,14.00
2022-11-19T15:58:15.122Z,15.00
2022-11-19T16:00:48.312Z,13.97
2022-11-19T16:03:21.623Z,17.50
2022-11-19T16:06:05.273Z,15.03
2022-11-19T16:08:36.064Z,16.67
2022-11-19T16:11:20.694Z,13.53
2022-11-19T16:14:07.326Z,15.83
2022-11-19T16:16:53.566Z,12.63
2022-11-19T16:19:29.248Z,15.67
2022-11-19T16:22:08.505Z,15.40
2022-11-19T16:24:52.962Z,10.67
2022-11-19T16:27:26.316Z,17.37
2022-11-19T16:29:57.436Z,14.53
2022-11-19T16:32:30.281Z,14.10
2022-11-19T16:35:12.874Z,21.43
2022-11-19T16:37:45.811Z,21.50
2022-11-19T16:40:20.515Z,20.83
2022-11-19T16:42:51.794Z,17.23
2022-11-19T16:45:25.193Z,19.07
2022-11-19T16:47:58.214Z,19.47
2022-11-19T16:50:33.771Z,20.63
2022-11-19T16:53:07.372Z,25.98
2022-11-19T16:55:42.967Z,18.90
2022-11-19T16:58:22.176Z,15.80
2022-11-19T17:00:55.772Z,18.87
2022-11-19T17:03:39.597Z,14.13
2022-11-19T17:06:11.854Z,16.00
2022-11-19T17:08:44.417Z,18.40
2022-11-19T17:11:30.397Z,19.10
2022-11-19T17:14:00.219Z,16.23
2022-11-19T17:16:30.092Z,19.50
2022-11-19T17:19:16.608Z,18.80
2022-11-19T17:21:58.657Z,31.57
2022-11-19T17:24:34.126Z,32.70
2022-11-19T17:27:03.909Z,26.23
2022-11-19T17:29:33.830Z,30.70
2022-11-19T17:32:06.771Z,23.77
2022-11-19T17:34:49.282Z,23.03
2022-11-19T17:37:20.274Z,22.07
2022-11-19T17:39:52.885Z,21.80
2022-11-19T17:42:35.246Z,24.50
2022-11-19T17:45:11.652Z,26.20
2022-11-19T17:47:43.474Z,22.30
2022-11-19T17:50:13.326Z,18.83
2022-11-19T17:52:46.564Z,19.70
2022-11-19T17:55:23.011Z,18.47
2022-11-19T17:57:58.234Z,19.40
2022-11-19T18:00:29.165Z,18.27
2022-11-19T18:03:02.897Z,23.43
2022-11-19T18:05:37.311Z,18.60
2022-11-19T18:08:07.670Z,12.90
2022-11-19T18:10:40.154Z,14.13
2022-11-19T18:13:10.793Z,14.03
2022-11-19T18:15:43.283Z,18.48
2022-11-19T18:18:13.319Z,18.50
2022-11-19T18:20:43.174Z,16.07
2022-11-19T18:23:15.395Z,13.70
2022-11-19T18:25:51.901Z,13.87
2022-11-19T18:28:28.048Z,10.43
2022-11-19T18:30:58.035Z,15.05
2022-11-19T18:33:31.316Z,14.60
2022-11-19T18:36:02.342Z,11.30
2022-11-19T18:38:34.062Z,14.43
2022-11-19T18:41:08.074Z,19.70
2022-11-19T18:43:50.434Z,18.13
2022-11-19T18:46:20.318Z,18.00
2022-11-19T18:48:50.344Z,16.03
2022-11-19T18:51:20.330Z,14.40
2022-11-19T18:53:54.275Z,14.87
2022-11-19T18:56:26.899Z,16.13
2022-11-19T18:59:00.438Z,17.90
2022-11-19T19:01:36.996Z,16.50
2022-11-19T19:04:07.514Z,21.23
2022-11-19T19:06:37.680Z,20.93
2022-11-19T19:09:07.556Z,16.80
2022-11-19T19:12:07.401Z,16.10
2022-11-19T19:14:41.081Z,16.60
2022-11-19T19:17:11.191Z,13.68
2022-11-19T19:19:41.621Z,13.52
2022-11-19T19:22:12.441Z,16.43
2022-11-19T19:24:42.298Z,15.55
2022-11-19T19:27:15.010Z,14.88
2022-11-19T19:29:45.038Z,13.90
2022-11-19T19:32:14.918Z,11.73
2022-11-19T19:34:45.845Z,13.70
2022-11-19T19:37:15.790Z,15.18
2022-11-19T19:39:45.799Z,17.20
2022-11-19T19:42:18.319Z,17.30
2022-11-19T19:44:51.241Z,16.40
2022-11-19T19:47:21.322Z,19.73
2022-11-19T19:49:51.441Z,21.70
2022-11-19T19:52:25.327Z,25.13
2022-11-19T19:54:55.487Z,20.33
2022-11-19T19:57:31.414Z,19.87
2022-11-19T20:00:01.286Z,22.83
2022-11-19T20:02:31.204Z,22.30
2022-11-19T20:05:09.347Z,27.13
2022-11-19T20:07:39.373Z,22.10
2022-11-19T20:10:11.057Z,20.63
2022-11-19T20:12:56.066Z,16.75
2022-11-19T20:15:27.318Z,18.83
2022-11-19T20:17:57.316Z,20.27
2022-11-19T20:20:27.274Z,19.95
2022-11-19T20:22:57.537Z,17.25
2022-11-19T20:25:27.473Z,16.63
2022-11-19T20:27:59.963Z,19.50
2022-11-19T20:30:29.890Z,19.25
2022-11-19T20:32:59.927Z,21.50
2022-11-19T20:35:33.338Z,16.90
2022-11-19T20:38:04.291Z,21.92
2022-11-19T20:40:34.167Z,21.23
2022-11-19T20:43:23.814Z,19.73
2022-11-19T20:45:55.591Z,22.87
2022-11-19T20:48:32.082Z,23.97
2022-11-19T20:51:01.975Z,23.90
2022-11-19T20:53:32.226Z,20.77
2022-11-19T20:56:08.709Z,19.63
2022-11-19T20:58:44.842Z,23.47
2022-11-19T21:01:15.701Z,25.35
2022-11-19T21:03:45.632Z,24.98
2022-11-19T21:06:15.652Z,24.73
2022-11-19T21:08:50.376Z,26.80
2022-11-19T21:11:21.307Z,23.87
2022-11-19T21:13:53.970Z,23.02
2022-11-19T21:16:25.677Z,23.80
2022-11-19T21:18:55.589Z,26.27
2022-11-19T21:21:28.616Z,24.63
2022-11-19T21:23:58.649Z,23.67
2022-11-19T21:26:30.344Z,23.13
2022-11-19T21:29:05.065Z,22.73
2022-11-19T21:31:45.428Z,20.57
2022-11-19T21:34:17.800Z,27.27
2022-11-19T21:36:49.999Z,20.70
2022-11-19T21:39:21.574Z,22.48
2022-11-19T21:41:52.590Z,21.05
2022-11-19T21:44:25.193Z,21.63
2022-11-19T21:46:55.321Z,21.75
2022-11-19T21:49:28.263Z,19.75
2022-11-19T21:51:59.112Z,19.08
2022-11-19T21:54:28.945Z,19.02
2022-11-19T21:56:59.355Z,21.00
2022-11-19T21:59:32.897Z,22.05
2022-11-19T22:02:07.332Z,18.63
2022-11-19T22:04:37.259Z,19.75
2022-11-19T22:07:07.365Z,23.50
2022-11-19T22:09:40.298Z,22.20
2022-11-19T22:12:10.216Z,29.02
2022-11-19T22:14:42.641Z,24.48
2022-11-19T22:17:12.538Z,35.37
2022-11-19T22:19:43.375Z,44.20
2022-11-19T22:22:13.286Z,37.00
2022-11-19T22:24:43.083Z,28.45
2022-11-19T22:27:12.897Z,22.95
2022-11-19T22:29:45.484Z,25.17
2022-11-19T22:32:15.308Z,23.73
2022-11-19T22:34:45.131Z,22.95
2022-11-19T22:37:16.007Z,27.65
2022-11-19T22:39:47.906Z,24.45
2022-11-19T22:42:21.268Z,22.90
2022-11-19T22:44:54.306Z,24.13
2022-11-19T22:47:24.089Z,24.95
2022-11-19T22:49:57.368Z,18.17
2022-11-19T22:52:31.010Z,22.52
2022-11-19T22:55:00.845Z,19.95
2022-11-19T22:57:30.611Z,20.60
2022-11-19T23:00:03.015Z,25.63
2022-11-19T23:02:39.235Z,23.75
2022-11-19T23:05:12.549Z,19.05
2022-11-19T23:07:42.501Z,19.70
2022-11-19T23:10:14.346Z,22.88
2022-11-19T23:12:56.710Z,19.70
2022-11-19T23:15:29.181Z,18.80
2022-11-19T23:17:59.035Z,20.50
2022-11-19T23:20:28.843Z,17.80
2022-11-19T23:23:04.406Z,22.63
2022-11-19T23:25:35.315Z,20.85
2022-11-19T23:28:05.232Z,19.25
2022-11-19T23:30:42.979Z,20.10
2022-11-19T23:33:16.335Z,20.58
2022-11-19T23:35:46.210Z,22.73
2022-11-19T23:38:16.322Z,22.27
2022-11-19T23:40:59.291Z,20.77
2022-11-19T23:43:36.408Z,22.07
2022-11-19T23:46:14.466Z,18.08
2022-11-19T23:48:45.892Z,19.10
2022-11-19T23:51:17.702Z,19.15
2022-11-19T23:53:47.810Z,18.77
2022-11-19T23:56:19.479Z,19.10
2022-11-19T23:58:50.732Z,26.58
